Брест

Карта отелей и гостиниц, располагающихся рядом с аэропортом Брест :

Брест Брестская область 52° 6' 29.7" N, 23° 53' 46.5" E
Код аэродрома ИКАО
UMBB
Код аэродрома RU
УМББ
Координаты
N52.10825° E023.89625°
Превышение над уровнем моря
143
Основная полоса
11/29
Курс магнитный
107,9/287,9
Длина основной ВПП
2620
Ширина основной ВПП
42
Покрытие основной ВПП
Твёрдое
Освещение ВПП
Постоянное
Тип: 
Аэродром
Класс аэродрома: 
Международный
Принадлежность: 
ГА
Статус: 
Действующий
Сайт: 
www.ban.by
E-mail аэродрома: 
fbrest@ban.by
Страна: 
Беларусь
Регион: 
Брестская область
Дополнительная информация: 
Оператор: Брестский филиал ГП "Белаэронавигация". Принимает ВС до 191 тонны.
Погода: 

Авиационная погода в Бресте

Регион: 
Погода METAR: 
UMBB 171100Z 10002MPS 9999 BKN021CB 12/07 Q1016 NOSIG
Время наблюдения
2021-04-17T11:00:00Z
Температура C
12.0
Точка росы
7.0
Направление ветра
100
Скорость ветра (узлы)
4
Метео видимость
6.21
Явления погоды
Условия полета
MVFR
Аэропорт подробнее: 

Найти трансфер

С помощью этой формы Вы можете найти трансфер из аэропорта Брест в город, аэропорт или вокзал:

Карта места

Javascript is required to view this map.

Погода в аэропортах:

Авиационная погода в Вардё

Регион: 
Погода METAR: 
ENSS 161920Z 26018KT 9999 -RA FEW026 SCT043 03/01 Q1025 RMK WIND 500FT 27031KT
Время наблюдения
2021-04-16T19:20:00Z
Температура C
3.0
Точка росы
1.0
Направление ветра
260
Скорость ветра (узлы)
18
Метео видимость
6.21
Явления погоды
-RA
Условия полета
VFR

Авиационная погода в Гомеле

Регион: 
Погода METAR: 
UMGG 171630Z VRB01MPS 8000 -SHRA OVC041CB 09/07 Q1018 R10/D NOSIG
Время наблюдения
2021-04-17T16:30:00Z
Температура C
9.0
Точка росы
7.0
Направление ветра
0
Скорость ветра (узлы)
2
Метео видимость
4.97
Явления погоды
-SHRA
Условия полета
MVFR
Аэропорт подробнее: 

Авиационная погода во Владикавказе

Регион: 
Погода METAR: 
URMO 171630Z 19002MPS 160V240 9999 -RA OVC018 11/09 Q1022 R27/290150 NOSIG RMK QFE721/0962
Время наблюдения
2021-04-17T16:30:00Z
Температура C
11.0
Точка росы
9.0
Направление ветра
190
Скорость ветра (узлы)
4
Метео видимость
6.21
Явления погоды
-RA
Условия полета
MVFR
Аэропорт подробнее: 

Авиационная погода в Полярном

Регион: 
Погода METAR: 
UERP 171700Z 30006G12MPS 9999 -SHSN DRSN BKN017CB OVC100 M12/M14 Q0995 NOSIG RMK QFE702
Время наблюдения
2021-04-17T17:00:00Z
Температура C
-12.0
Точка росы
-14.0
Направление ветра
300
Скорость ветра (узлы)
12
Метео видимость
6.21
Явления погоды
-SHSN DRSN
Условия полета
MVFR
Аэропорт подробнее: